createdAt,value
2022-11-02T00:02:10.149Z,12.20
2022-11-02T00:04:37.039Z,12.20
2022-11-02T00:07:03.893Z,12.20
2022-11-02T00:09:30.774Z,12.20
2022-11-02T00:11:57.647Z,12.10
2022-11-02T00:14:24.598Z,12.20
2022-11-02T00:16:51.852Z,12.20
2022-11-02T00:19:18.856Z,12.20
2022-11-02T00:21:46.214Z,12.20
2022-11-02T00:24:13.412Z,12.20
2022-11-02T00:26:40.266Z,12.20
2022-11-02T00:29:08.452Z,12.10
2022-11-02T00:31:35.299Z,12.20
2022-11-02T00:34:02.193Z,12.20
2022-11-02T00:36:29.253Z,12.20
2022-11-02T00:38:56.145Z,12.10
2022-11-02T00:41:23.038Z,12.20
2022-11-02T00:43:49.876Z,12.10
2022-11-02T00:46:16.764Z,12.20
2022-11-02T00:48:43.608Z,12.20
2022-11-02T00:51:10.512Z,12.20
2022-11-02T00:53:37.374Z,12.20
2022-11-02T00:56:04.475Z,12.10
2022-11-02T00:58:31.348Z,12.10
2022-11-02T01:00:58.292Z,12.10
2022-11-02T01:03:25.232Z,12.10
2022-11-02T01:05:52.072Z,12.10
2022-11-02T01:08:18.977Z,12.10
2022-11-02T01:10:48.288Z,12.10
2022-11-02T01:13:15.679Z,12.10
2022-11-02T01:15:43.254Z,12.10
2022-11-02T01:18:10.100Z,12.00
2022-11-02T01:20:37.016Z,11.90
2022-11-02T01:23:04.000Z,11.90
2022-11-02T01:25:30.892Z,11.80
2022-11-02T01:27:57.781Z,11.80
2022-11-02T01:30:24.679Z,11.70
2022-11-02T01:32:51.539Z,11.70
2022-11-02T01:35:18.498Z,11.80
2022-11-02T01:37:45.458Z,11.70
2022-11-02T01:40:12.602Z,11.60
2022-11-02T01:42:39.489Z,11.50
2022-11-02T01:45:06.966Z,11.50
2022-11-02T01:47:39.317Z,11.40
2022-11-02T01:50:13.669Z,11.40
2022-11-02T01:52:41.499Z,11.30
2022-11-02T01:55:29.432Z,11.30
2022-11-02T01:58:00.618Z,11.10
2022-11-02T02:00:27.685Z,11.00
2022-11-02T02:03:07.827Z,10.90
2022-11-02T02:05:40.373Z,10.80
2022-11-02T02:08:10.988Z,10.70
2022-11-02T02:10:38.075Z,10.60
2022-11-02T02:13:07.064Z,10.60
2022-11-02T02:15:55.485Z,10.60
2022-11-02T02:18:43.074Z,10.50
2022-11-02T02:21:38.866Z,10.60
2022-11-02T02:24:33.466Z,10.40
2022-11-02T02:27:00.362Z,10.40
2022-11-02T02:29:59.301Z,10.30
2022-11-02T02:32:37.705Z,10.30
2022-11-02T02:35:27.274Z,10.40
2022-11-02T02:38:03.862Z,10.40
2022-11-02T02:40:34.856Z,10.40
2022-11-02T02:43:15.733Z,10.40
2022-11-02T02:45:56.197Z,10.50
2022-11-02T02:48:25.645Z,10.60
2022-11-02T02:51:01.439Z,10.50
2022-11-02T02:53:34.281Z,10.50
2022-11-02T02:56:02.433Z,10.50
2022-11-02T02:58:38.235Z,10.60
2022-11-02T03:01:06.288Z,10.50
2022-11-02T03:03:34.869Z,10.50
2022-11-02T03:06:04.323Z,10.50
2022-11-02T03:08:32.016Z,10.50
2022-11-02T03:11:17.060Z,10.50
2022-11-02T03:14:11.047Z,10.60
2022-11-02T03:17:08.108Z,10.50
2022-11-02T03:19:42.575Z,10.50
2022-11-02T03:22:15.651Z,10.50
2022-11-02T03:25:04.564Z,10.50
2022-11-02T03:27:51.930Z,10.50
2022-11-02T03:30:21.583Z,10.50
2022-11-02T03:33:07.215Z,10.50
2022-11-02T03:35:40.712Z,10.50
2022-11-02T03:38:21.433Z,10.50
2022-11-02T03:40:50.944Z,10.60
2022-11-02T03:43:20.481Z,10.50
2022-11-02T03:45:55.976Z,10.60
2022-11-02T03:48:27.364Z,10.60
2022-11-02T03:50:55.678Z,10.70
2022-11-02T03:53:22.763Z,10.60
2022-11-02T03:55:58.521Z,10.50
2022-11-02T03:58:25.429Z,10.50
2022-11-02T04:00:57.844Z,10.50
2022-11-02T04:03:25.563Z,10.40
2022-11-02T04:05:52.448Z,10.40
2022-11-02T04:08:40.774Z,10.40
2022-11-02T04:11:26.491Z,10.40
2022-11-02T04:14:11.879Z,10.40
2022-11-02T04:16:39.105Z,10.30
2022-11-02T04:19:24.460Z,10.30
2022-11-02T04:22:09.974Z,10.40
2022-11-02T04:24:55.379Z,10.50
2022-11-02T04:27:22.252Z,10.50
2022-11-02T04:29:49.564Z,10.60
2022-11-02T04:32:36.918Z,10.60
2022-11-02T04:35:04.740Z,10.60
2022-11-02T04:37:50.028Z,10.50
2022-11-02T04:40:17.750Z,10.50
2022-11-02T04:42:47.189Z,10.50
2022-11-02T04:45:14.094Z,10.50
2022-11-02T04:47:40.969Z,10.50
2022-11-02T04:50:08.160Z,10.50
2022-11-02T04:52:35.076Z,10.40
2022-11-02T04:55:02.018Z,10.40
2022-11-02T04:57:28.939Z,10.40
2022-11-02T04:59:55.835Z,10.40
2022-11-02T05:02:22.884Z,10.40
2022-11-02T05:04:49.838Z,10.30
2022-11-02T05:07:19.532Z,10.30
2022-11-02T05:09:46.443Z,10.30
2022-11-02T05:12:13.369Z,10.30
2022-11-02T05:14:40.707Z,10.30
2022-11-02T05:17:07.607Z,10.30
2022-11-02T05:19:34.477Z,10.30
2022-11-02T05:22:01.421Z,10.30
2022-11-02T05:24:28.404Z,10.30
2022-11-02T05:26:55.306Z,10.20
2022-11-02T05:29:22.180Z,10.20
2022-11-02T05:31:49.073Z,10.10
2022-11-02T05:34:15.927Z,10.00
2022-11-02T05:36:42.917Z,10.00
2022-11-02T05:39:09.865Z,10.00
2022-11-02T05:41:36.745Z,10.00
2022-11-02T05:44:03.629Z,9.90
2022-11-02T05:46:30.597Z,9.90
2022-11-02T05:48:57.477Z,9.80
2022-11-02T05:51:24.370Z,9.80
2022-11-02T05:53:51.415Z,9.80
2022-11-02T05:56:23.675Z,9.70
2022-11-02T06:01:24.405Z,9.80
2022-11-02T06:03:53.633Z,9.80
2022-11-02T06:06:21.017Z,9.70
2022-11-02T06:08:47.941Z,9.70
2022-11-02T06:11:15.481Z,9.70
2022-11-02T06:13:42.631Z,9.70
2022-11-02T06:16:11.457Z,9.70
2022-11-02T06:18:39.473Z,9.70
2022-11-02T06:21:06.588Z,9.80
2022-11-02T06:23:34.032Z,9.80
2022-11-02T06:26:01.723Z,9.80
2022-11-02T06:28:29.820Z,9.80
2022-11-02T06:30:57.351Z,9.80
2022-11-02T06:33:24.574Z,9.70
2022-11-02T06:35:53.421Z,9.80
2022-11-02T06:38:20.848Z,9.80
2022-11-02T06:40:58.483Z,9.80
2022-11-02T06:43:26.359Z,9.80
2022-11-02T06:45:57.985Z,9.90
2022-11-02T06:48:29.816Z,9.90
2022-11-02T06:51:01.727Z,9.90
2022-11-02T06:53:28.732Z,9.90
2022-11-02T06:55:57.456Z,9.90
2022-11-02T06:58:26.410Z,9.90
2022-11-02T07:04:41.342Z,10.00
2022-11-02T07:07:08.231Z,10.10
2022-11-02T07:09:35.168Z,10.20
2022-11-02T07:12:02.174Z,10.10
2022-11-02T07:14:29.079Z,10.20
2022-11-02T07:16:56.748Z,10.20
2022-11-02T07:19:23.682Z,10.20
2022-11-02T07:21:50.534Z,10.20
2022-11-02T07:24:17.430Z,10.30
2022-11-02T07:26:44.590Z,10.30
2022-11-02T07:29:11.496Z,10.20
2022-11-02T07:31:38.481Z,10.30
2022-11-02T07:34:05.359Z,10.30
2022-11-02T07:40:20.006Z,10.30
2022-11-02T07:42:47.006Z,10.40
2022-11-02T07:45:14.164Z,10.40
2022-11-02T07:47:48.219Z,10.30
2022-11-02T07:50:17.826Z,10.30
2022-11-02T07:56:31.908Z,10.40
2022-11-02T07:58:58.846Z,10.50
2022-11-02T08:01:25.826Z,10.60
2022-11-02T08:03:53.062Z,10.70
2022-11-02T08:06:20.009Z,10.80
2022-11-02T08:08:46.915Z,10.80
2022-11-02T08:11:13.845Z,10.90
2022-11-02T08:13:40.732Z,11.00
2022-11-02T08:16:07.922Z,11.10
2022-11-02T08:18:34.825Z,11.20
2022-11-02T08:21:01.806Z,11.30
2022-11-02T08:23:28.685Z,11.40
2022-11-02T08:25:59.270Z,11.30
2022-11-02T08:28:28.657Z,11.40
2022-11-02T08:30:55.734Z,11.40
2022-11-02T08:33:22.618Z,11.30
2022-11-02T08:35:49.779Z,11.40
2022-11-02T08:38:17.584Z,11.40
2022-11-02T08:40:45.082Z,11.40
2022-11-02T08:43:13.845Z,11.40
2022-11-02T08:46:13.402Z,11.40
2022-11-02T08:48:30.636Z,11.50
2022-11-02T08:50:57.681Z,11.60
2022-11-02T08:53:24.627Z,11.70
2022-11-02T08:55:51.511Z,11.80
2022-11-02T08:58:18.654Z,11.80
2022-11-02T09:00:45.813Z,11.80
2022-11-02T09:03:15.527Z,11.80
2022-11-02T09:05:44.657Z,11.80
2022-11-02T09:08:19.684Z,11.80
2022-11-02T09:10:50.651Z,11.90
2022-11-02T09:13:20.936Z,11.90
2022-11-02T09:15:51.493Z,12.00
2022-11-02T09:18:18.452Z,12.20
2022-11-02T09:20:46.588Z,12.30
2022-11-02T09:23:13.525Z,12.40
2022-11-02T09:25:40.386Z,12.60
2022-11-02T09:28:07.785Z,12.80
2022-11-02T09:30:35.090Z,12.90
2022-11-02T09:33:06.945Z,12.90
2022-11-02T09:35:36.678Z,13.00
2022-11-02T09:38:03.971Z,13.10
2022-11-02T09:40:40.079Z,13.30
2022-11-02T09:43:32.678Z,13.30
2022-11-02T09:46:40.410Z,13.40
2022-11-02T09:49:22.463Z,13.30
2022-11-02T09:51:56.107Z,13.40
2022-11-02T09:54:46.094Z,13.50
2022-11-02T09:57:29.401Z,13.40
2022-11-02T09:59:57.006Z,13.40
2022-11-02T10:02:43.046Z,13.50
2022-11-02T10:05:30.385Z,13.60
2022-11-02T10:08:25.123Z,13.60
2022-11-02T10:11:08.250Z,13.60
2022-11-02T10:13:35.422Z,13.70
2022-11-02T10:16:19.726Z,13.80
2022-11-02T10:18:50.118Z,13.90
2022-11-02T10:21:22.003Z,13.80
2022-11-02T10:23:54.017Z,13.80
2022-11-02T10:26:34.614Z,13.90
2022-11-02T10:29:27.576Z,14.00
2022-11-02T10:31:54.450Z,14.10
2022-11-02T10:34:27.321Z,14.20
2022-11-02T10:37:09.413Z,14.10
2022-11-02T10:39:42.865Z,14.20
2022-11-02T10:42:43.847Z,14.10
2022-11-02T10:45:25.949Z,14.10
2022-11-02T10:47:59.199Z,14.20
2022-11-02T10:50:41.459Z,14.30
2022-11-02T10:53:39.360Z,14.20
2022-11-02T11:00:25.374Z,14.40
2022-11-02T11:03:05.825Z,14.40
2022-11-02T11:05:36.238Z,14.40
2022-11-02T11:08:04.586Z,14.50
2022-11-02T11:10:38.248Z,14.50
2022-11-02T11:13:07.775Z,14.50
2022-11-02T11:15:50.678Z,14.60
2022-11-02T11:21:08.849Z,14.40
2022-11-02T11:23:35.839Z,14.50
2022-11-02T11:26:05.729Z,14.50
2022-11-02T11:32:30.590Z,14.50
2022-11-02T11:35:02.254Z,14.30
2022-11-02T11:37:29.695Z,14.20
2022-11-02T11:40:05.145Z,14.10
2022-11-02T11:42:35.420Z,14.00
2022-11-02T11:45:06.940Z,14.00
2022-11-02T11:47:40.052Z,13.80
2022-11-02T11:50:21.796Z,13.60
2022-11-02T11:53:18.188Z,13.60
2022-11-02T11:55:53.450Z,13.40
2022-11-02T11:58:25.450Z,13.30
2022-11-02T12:01:10.795Z,13.10
2022-11-02T12:04:00.501Z,13.00
2022-11-02T12:06:36.167Z,12.80
2022-11-02T12:09:34.108Z,12.60
2022-11-02T12:12:25.848Z,12.50
2022-11-02T12:15:11.486Z,12.40
2022-11-02T12:17:47.518Z,12.40
2022-11-02T12:20:17.664Z,12.50
2022-11-02T12:23:13.680Z,12.50
2022-11-02T12:26:05.004Z,12.50
2022-11-02T12:28:55.724Z,12.50
2022-11-02T12:32:00.761Z,12.50
2022-11-02T12:34:52.878Z,12.50
2022-11-02T12:37:54.534Z,12.50
2022-11-02T12:40:39.367Z,12.50
2022-11-02T12:43:27.573Z,12.60
2022-11-02T12:46:04.388Z,12.50
2022-11-02T12:49:17.629Z,12.50
2022-11-02T12:51:52.125Z,12.50
2022-11-02T12:54:27.578Z,12.70
2022-11-02T12:56:55.382Z,12.90
2022-11-02T12:59:26.543Z,13.10
2022-11-02T13:02:18.084Z,13.00
2022-11-02T13:05:09.690Z,13.00
2022-11-02T13:07:48.759Z,12.90
2022-11-02T13:13:59.188Z,12.70
2022-11-02T13:16:51.559Z,12.50
2022-11-02T13:19:34.729Z,12.50
2022-11-02T13:22:04.125Z,12.50
2022-11-02T13:24:37.046Z,12.50
2022-11-02T13:27:21.705Z,12.40
2022-11-02T13:29:58.500Z,12.40
2022-11-02T13:32:54.681Z,12.30
2022-11-02T13:35:36.228Z,12.30
2022-11-02T13:38:33.832Z,12.30
2022-11-02T13:41:19.188Z,12.20
2022-11-02T13:43:58.172Z,12.20
2022-11-02T13:47:00.614Z,12.20
2022-11-02T13:49:31.040Z,12.10
2022-11-02T13:52:04.115Z,12.10
2022-11-02T13:54:39.070Z,12.00
2022-11-02T13:57:06.121Z,12.00
2022-11-02T13:59:43.132Z,11.90
2022-11-02T14:02:16.732Z,12.00
2022-11-02T14:04:44.596Z,12.00
2022-11-02T14:07:40.490Z,11.90
2022-11-02T14:10:17.659Z,12.10
2022-11-02T14:12:49.244Z,12.10
2022-11-02T14:15:16.143Z,12.20
2022-11-02T14:17:55.352Z,12.40
2022-11-02T14:20:43.580Z,12.40
2022-11-02T14:23:10.753Z,12.30
2022-11-02T14:25:53.773Z,12.30
2022-11-02T14:28:25.726Z,12.20
2022-11-02T14:31:04.526Z,12.20
2022-11-02T14:33:56.299Z,12.10
2022-11-02T14:36:43.797Z,12.00
2022-11-02T14:39:55.683Z,12.00
2022-11-02T14:42:41.469Z,11.90
2022-11-02T14:45:26.018Z,11.90
2022-11-02T14:48:05.477Z,11.90
2022-11-02T14:50:33.145Z,11.90
2022-11-02T14:53:10.191Z,11.90
2022-11-02T14:55:39.142Z,11.80
2022-11-02T14:58:14.803Z,11.80
2022-11-02T15:00:47.944Z,11.80
2022-11-02T15:06:58.116Z,11.80
2022-11-02T15:09:54.613Z,11.90
2022-11-02T15:12:27.142Z,11.90
2022-11-02T15:15:19.447Z,11.90
2022-11-02T15:17:58.227Z,11.90
2022-11-02T15:20:34.657Z,11.90
2022-11-02T15:23:40.133Z,11.90
2022-11-02T15:26:11.535Z,11.90
2022-11-02T15:28:39.151Z,12.00
2022-11-02T15:31:15.135Z,12.00
2022-11-02T15:33:45.838Z,12.10
2022-11-02T15:36:22.047Z,12.00
2022-11-02T15:38:51.643Z,12.00
2022-11-02T15:41:50.672Z,11.90
2022-11-02T15:44:41.463Z,11.80
2022-11-02T15:47:20.427Z,11.70
2022-11-02T15:50:02.308Z,11.70
2022-11-02T15:53:22.282Z,11.60
2022-11-02T15:56:03.779Z,11.50
2022-11-02T15:58:39.734Z,11.50
2022-11-02T16:01:28.563Z,11.50
2022-11-02T16:04:02.066Z,11.50
2022-11-02T16:06:29.073Z,11.40
2022-11-02T16:08:59.651Z,11.30
2022-11-02T16:11:27.301Z,11.30
2022-11-02T16:14:13.482Z,11.30
2022-11-02T16:16:48.977Z,11.30
2022-11-02T16:19:22.452Z,11.30
2022-11-02T16:21:50.105Z,11.30
2022-11-02T16:24:18.294Z,11.30
2022-11-02T16:26:46.598Z,11.20
2022-11-02T16:29:26.734Z,11.40
2022-11-02T16:31:53.794Z,11.60
2022-11-02T16:34:29.979Z,11.60
2022-11-02T16:36:58.128Z,11.50
2022-11-02T16:39:30.426Z,11.40
2022-11-02T16:42:00.045Z,11.40
2022-11-02T16:44:32.386Z,11.40
2022-11-02T16:47:15.688Z,11.40
2022-11-02T16:50:03.557Z,11.40
2022-11-02T16:52:36.162Z,11.40
2022-11-02T16:55:23.234Z,11.30
2022-11-02T16:57:50.295Z,11.30
2022-11-02T17:00:20.097Z,11.50
2022-11-02T17:02:47.691Z,11.40
2022-11-02T17:05:16.541Z,11.20
2022-11-02T17:07:50.115Z,11.00
2022-11-02T17:10:24.171Z,10.80
2022-11-02T17:12:51.308Z,10.60
2022-11-02T17:15:24.313Z,10.50
2022-11-02T17:18:16.742Z,10.30
2022-11-02T17:20:43.694Z,10.10
2022-11-02T17:23:29.080Z,10.00
2022-11-02T17:26:15.871Z,9.90
2022-11-02T17:28:46.039Z,9.90
2022-11-02T17:31:34.701Z,9.70
2022-11-02T17:34:17.643Z,9.70
2022-11-02T17:36:46.277Z,9.60
2022-11-02T17:39:15.104Z,9.50
2022-11-02T17:42:07.627Z,9.50
2022-11-02T17:44:34.528Z,9.40
2022-11-02T17:47:01.611Z,9.30
2022-11-02T17:49:28.565Z,9.20
2022-11-02T17:51:55.483Z,9.10
2022-11-02T17:54:22.567Z,9.00
2022-11-02T18:04:36.276Z,8.90
2022-11-02T18:07:03.235Z,8.90
2022-11-02T18:09:30.384Z,8.90
2022-11-02T18:11:57.247Z,8.80
2022-11-02T18:14:24.171Z,8.70
2022-11-02T18:16:52.894Z,8.70
2022-11-02T18:19:19.865Z,8.80
2022-11-02T18:21:46.730Z,8.90
2022-11-02T18:28:02.286Z,8.90
2022-11-02T18:30:30.077Z,8.80
2022-11-02T18:32:57.481Z,8.80
2022-11-02T18:35:25.341Z,8.80
2022-11-02T18:37:52.451Z,8.80
2022-11-02T18:40:20.625Z,8.90
2022-11-02T18:42:47.737Z,9.20
2022-11-02T18:45:15.947Z,9.40
2022-11-02T18:47:43.474Z,9.50
2022-11-02T18:50:12.821Z,9.70
2022-11-02T18:52:40.345Z,9.60
2022-11-02T18:55:08.025Z,9.60
2022-11-02T18:57:35.263Z,9.70
2022-11-02T19:00:03.062Z,9.70
2022-11-02T19:02:30.350Z,9.70
2022-11-02T19:04:57.500Z,9.70
2022-11-02T19:07:42.787Z,9.70
2022-11-02T19:10:10.346Z,9.80
2022-11-02T19:12:37.799Z,9.90
2022-11-02T19:15:05.197Z,10.00
2022-11-02T19:17:32.143Z,9.90
2022-11-02T19:19:59.164Z,9.80
2022-11-02T19:22:26.872Z,9.80
2022-11-02T19:24:53.883Z,9.70
2022-11-02T19:27:25.420Z,9.80
2022-11-02T19:29:52.569Z,9.90
2022-11-02T19:32:19.918Z,9.70
2022-11-02T19:34:47.101Z,9.60
2022-11-02T19:37:14.148Z,9.50
2022-11-02T19:39:41.428Z,9.40
2022-11-02T19:42:08.465Z,9.20
2022-11-02T19:44:42.093Z,9.20
2022-11-02T19:47:10.195Z,9.50
2022-11-02T19:49:37.253Z,9.50
2022-11-02T19:52:04.514Z,9.40
2022-11-02T19:54:31.452Z,9.30
2022-11-02T19:56:58.429Z,9.50
2022-11-02T19:59:25.378Z,9.30
2022-11-02T20:01:52.556Z,9.20
2022-11-02T20:04:19.897Z,9.10
2022-11-02T20:06:46.829Z,9.00
2022-11-02T20:09:16.651Z,8.90
2022-11-02T20:15:31.052Z,8.70
2022-11-02T20:18:17.761Z,8.50
2022-11-02T20:20:44.935Z,8.50
2022-11-02T20:23:11.866Z,8.50
2022-11-02T20:25:38.845Z,8.40
2022-11-02T20:28:06.085Z,8.30
2022-11-02T20:30:33.410Z,8.30
2022-11-02T20:33:00.413Z,8.20
2022-11-02T20:35:27.346Z,8.20
2022-11-02T20:37:54.727Z,8.10
2022-11-02T20:40:22.579Z,8.10
2022-11-02T20:42:50.430Z,8.10
2022-11-02T20:45:18.455Z,8.10
2022-11-02T20:47:45.416Z,8.10
2022-11-02T20:50:16.447Z,8.00
2022-11-02T20:52:45.361Z,8.00
2022-11-02T20:55:12.302Z,8.00
2022-11-02T20:57:39.219Z,8.00
2022-11-02T21:00:06.803Z,8.00
2022-11-02T21:02:33.844Z,8.10
2022-11-02T21:05:00.940Z,8.10
2022-11-02T21:07:27.804Z,8.00
2022-11-02T21:09:54.851Z,8.70
2022-11-02T21:12:40.146Z,8.60
2022-11-02T21:15:07.778Z,8.80
2022-11-02T21:17:35.322Z,8.80
2022-11-02T21:20:28.397Z,8.80
2022-11-02T21:22:52.251Z,8.90
2022-11-02T21:25:19.191Z,9.00
2022-11-02T21:27:50.659Z,8.80
2022-11-02T21:30:18.528Z,8.70
2022-11-02T21:32:45.428Z,8.70
2022-11-02T21:35:12.308Z,8.50
2022-11-02T21:37:39.179Z,8.90
2022-11-02T21:40:06.698Z,8.80
2022-11-02T21:42:33.580Z,8.60
2022-11-02T21:45:00.562Z,8.70
2022-11-02T21:47:34.145Z,8.70
2022-11-02T21:50:11.347Z,8.60
2022-11-02T21:52:41.094Z,8.70
2022-11-02T21:55:11.650Z,8.70
2022-11-02T21:57:38.588Z,8.80
2022-11-02T22:00:06.013Z,8.70
2022-11-02T22:02:32.942Z,8.60
2022-11-02T22:04:59.880Z,8.50
2022-11-02T22:07:26.771Z,8.40
2022-11-02T22:09:53.806Z,8.60
2022-11-02T22:12:39.360Z,8.60
2022-11-02T22:15:06.981Z,8.70
2022-11-02T22:17:49.082Z,8.50
2022-11-02T22:20:17.266Z,8.60
2022-11-02T22:22:44.171Z,8.80
2022-11-02T22:25:11.049Z,8.80
2022-11-02T22:27:37.923Z,8.70
2022-11-02T22:30:05.407Z,8.80
2022-11-02T22:32:32.264Z,8.80
2022-11-02T22:34:59.146Z,8.80
2022-11-02T22:37:44.552Z,9.00
2022-11-02T22:40:11.581Z,9.10
2022-11-02T22:42:41.499Z,9.10
2022-11-02T22:45:10.226Z,9.20
2022-11-02T22:47:37.157Z,9.10
2022-11-02T22:50:04.430Z,9.10
2022-11-02T22:52:31.302Z,9.10
2022-11-02T22:54:58.157Z,9.00
2022-11-02T22:57:25.053Z,9.00
2022-11-02T22:59:51.976Z,9.00
2022-11-02T23:02:18.950Z,9.20
2022-11-02T23:04:45.821Z,9.10
2022-11-02T23:07:12.837Z,9.20
2022-11-02T23:09:39.833Z,9.30
2022-11-02T23:12:06.929Z,9.30
2022-11-02T23:14:33.779Z,9.30
2022-11-02T23:17:00.666Z,9.30
2022-11-02T23:19:30.306Z,9.40
2022-11-02T23:22:23.097Z,9.40
2022-11-02T23:25:10.417Z,9.50
2022-11-02T23:28:02.646Z,9.50
2022-11-02T23:30:50.717Z,9.50
2022-11-02T23:33:18.583Z,9.70
2022-11-02T23:36:04.083Z,9.70
2022-11-02T23:38:49.476Z,9.80
2022-11-02T23:41:17.742Z,9.80
2022-11-02T23:43:44.934Z,9.60
2022-11-02T23:46:11.869Z,9.60
2022-11-02T23:48:40.879Z,9.50
2022-11-02T23:51:27.124Z,9.50
2022-11-02T23:54:20.009Z,9.40
2022-11-02T23:56:47.003Z,9.40
2022-11-02T23:59:16.602Z,9.50
